sensor_id;sensor_type;location;lat;lon;timestamp;P1;durP1;ratioP1;P2;durP2;ratioP2
54871;SDS011;43914;57.680;11.982;2023-05-14T00:02:13;7.70;;;2.90;;
54871;SDS011;43914;57.680;11.982;2023-05-14T00:04:38;8.90;;;3.10;;
54871;SDS011;43914;57.680;11.982;2023-05-14T00:07:04;7.80;;;3.20;;
54871;SDS011;43914;57.680;11.982;2023-05-14T00:09:30;9.80;;;2.90;;
54871;SDS011;43914;57.680;11.982;2023-05-14T00:12:01;7.40;;;2.90;;
54871;SDS011;43914;57.680;11.982;2023-05-14T00:14:30;6.70;;;2.90;;
54871;SDS011;43914;57.680;11.982;2023-05-14T00:16:56;8.50;;;3.30;;
54871;SDS011;43914;57.680;11.982;2023-05-14T00:19:22;7.30;;;3.00;;
54871;SDS011;43914;57.680;11.982;2023-05-14T00:21:47;10.00;;;2.80;;
54871;SDS011;43914;57.680;11.982;2023-05-14T00:24:13;10.20;;;2.80;;
54871;SDS011;43914;57.680;11.982;2023-05-14T00:26:39;6.40;;;2.70;;
54871;SDS011;43914;57.680;11.982;2023-05-14T00:29:04;6.80;;;3.00;;
54871;SDS011;43914;57.680;11.982;2023-05-14T00:31:30;6.90;;;2.60;;
54871;SDS011;43914;57.680;11.982;2023-05-14T00:33:55;7.90;;;3.10;;
54871;SDS011;43914;57.680;11.982;2023-05-14T00:36:21;7.50;;;3.00;;
54871;SDS011;43914;57.680;11.982;2023-05-14T00:38:46;7.60;;;3.00;;
54871;SDS011;43914;57.680;11.982;2023-05-14T00:41:11;8.50;;;2.70;;
54871;SDS011;43914;57.680;11.982;2023-05-14T00:43:37;9.50;;;3.10;;
54871;SDS011;43914;57.680;11.982;2023-05-14T00:46:02;9.30;;;3.10;;
54871;SDS011;43914;57.680;11.982;2023-05-14T00:48:28;8.80;;;2.90;;
54871;SDS011;43914;57.680;11.982;2023-05-14T00:50:56;6.30;;;2.80;;
54871;SDS011;43914;57.680;11.982;2023-05-14T00:53:22;7.20;;;2.60;;
54871;SDS011;43914;57.680;11.982;2023-05-14T00:55:48;8.20;;;3.20;;
54871;SDS011;43914;57.680;11.982;2023-05-14T00:58:14;7.10;;;2.80;;
54871;SDS011;43914;57.680;11.982;2023-05-14T01:00:40;6.40;;;2.50;;
54871;SDS011;43914;57.680;11.982;2023-05-14T01:03:06;11.10;;;2.80;;
54871;SDS011;43914;57.680;11.982;2023-05-14T01:12:02;7.10;;;2.80;;
54871;SDS011;43914;57.680;11.982;2023-05-14T01:17:17;8.40;;;2.70;;
54871;SDS011;43914;57.680;11.982;2023-05-14T01:19:45;7.70;;;2.80;;
54871;SDS011;43914;57.680;11.982;2023-05-14T01:22:12;7.70;;;2.60;;
54871;SDS011;43914;57.680;11.982;2023-05-14T01:24:38;10.60;;;2.80;;
54871;SDS011;43914;57.680;11.982;2023-05-14T01:29:49;6.80;;;2.70;;
54871;SDS011;43914;57.680;11.982;2023-05-14T01:32:23;8.30;;;2.70;;
54871;SDS011;43914;57.680;11.982;2023-05-14T01:34:49;8.70;;;2.60;;
54871;SDS011;43914;57.680;11.982;2023-05-14T01:37:16;6.60;;;2.80;;
54871;SDS011;43914;57.680;11.982;2023-05-14T01:39:42;7.60;;;2.60;;
54871;SDS011;43914;57.680;11.982;2023-05-14T01:42:09;6.20;;;2.70;;
54871;SDS011;43914;57.680;11.982;2023-05-14T01:44:35;6.10;;;2.40;;
54871;SDS011;43914;57.680;11.982;2023-05-14T01:47:00;8.00;;;2.70;;
54871;SDS011;43914;57.680;11.982;2023-05-14T01:49:26;8.10;;;2.90;;
54871;SDS011;43914;57.680;11.982;2023-05-14T01:51:51;7.20;;;2.60;;
54871;SDS011;43914;57.680;11.982;2023-05-14T01:54:17;7.50;;;3.00;;
54871;SDS011;43914;57.680;11.982;2023-05-14T01:56:42;9.10;;;2.80;;
54871;SDS011;43914;57.680;11.982;2023-05-14T01:59:08;9.30;;;2.70;;
54871;SDS011;43914;57.680;11.982;2023-05-14T02:01:33;8.70;;;2.40;;
54871;SDS011;43914;57.680;11.982;2023-05-14T02:03:59;6.10;;;2.50;;
54871;SDS011;43914;57.680;11.982;2023-05-14T02:06:25;8.70;;;2.70;;
54871;SDS011;43914;57.680;11.982;2023-05-14T02:08:51;7.80;;;2.60;;
54871;SDS011;43914;57.680;11.982;2023-05-14T02:11:16;10.20;;;2.80;;
54871;SDS011;43914;57.680;11.982;2023-05-14T02:13:41;6.90;;;2.70;;
54871;SDS011;43914;57.680;11.982;2023-05-14T02:16:07;6.60;;;2.40;;
54871;SDS011;43914;57.680;11.982;2023-05-14T02:18:33;7.30;;;2.80;;
54871;SDS011;43914;57.680;11.982;2023-05-14T02:20:58;8.20;;;2.70;;
54871;SDS011;43914;57.680;11.982;2023-05-14T02:23:24;8.20;;;2.90;;
54871;SDS011;43914;57.680;11.982;2023-05-14T02:25:49;7.70;;;3.00;;
54871;SDS011;43914;57.680;11.982;2023-05-14T02:28:15;9.00;;;3.20;;
54871;SDS011;43914;57.680;11.982;2023-05-14T02:30:40;6.80;;;2.90;;
54871;SDS011;43914;57.680;11.982;2023-05-14T02:33:06;9.30;;;2.80;;
54871;SDS011;43914;57.680;11.982;2023-05-14T02:35:31;8.60;;;2.70;;
54871;SDS011;43914;57.680;11.982;2023-05-14T02:37:57;6.90;;;2.60;;
54871;SDS011;43914;57.680;11.982;2023-05-14T02:40:23;10.80;;;2.90;;
54871;SDS011;43914;57.680;11.982;2023-05-14T02:42:49;6.30;;;2.60;;
54871;SDS011;43914;57.680;11.982;2023-05-14T02:45:15;9.00;;;3.10;;
54871;SDS011;43914;57.680;11.982;2023-05-14T02:47:40;8.30;;;3.00;;
54871;SDS011;43914;57.680;11.982;2023-05-14T02:50:06;9.20;;;2.80;;
54871;SDS011;43914;57.680;11.982;2023-05-14T02:52:32;6.00;;;2.70;;
54871;SDS011;43914;57.680;11.982;2023-05-14T02:54:58;6.40;;;2.50;;
54871;SDS011;43914;57.680;11.982;2023-05-14T02:57:23;7.70;;;2.60;;
54871;SDS011;43914;57.680;11.982;2023-05-14T02:59:49;7.60;;;3.00;;
54871;SDS011;43914;57.680;11.982;2023-05-14T03:02:14;6.60;;;2.60;;
54871;SDS011;43914;57.680;11.982;2023-05-14T03:04:40;6.90;;;2.80;;
54871;SDS011;43914;57.680;11.982;2023-05-14T03:07:05;8.80;;;2.60;;
54871;SDS011;43914;57.680;11.982;2023-05-14T03:09:31;8.40;;;2.80;;
54871;SDS011;43914;57.680;11.982;2023-05-14T03:11:56;7.20;;;2.70;;
54871;SDS011;43914;57.680;11.982;2023-05-14T03:14:21;10.50;;;2.80;;
54871;SDS011;43914;57.680;11.982;2023-05-14T03:16:47;7.30;;;2.70;;
54871;SDS011;43914;57.680;11.982;2023-05-14T03:19:12;9.30;;;2.70;;
54871;SDS011;43914;57.680;11.982;2023-05-14T03:21:38;7.90;;;3.10;;
54871;SDS011;43914;57.680;11.982;2023-05-14T03:24:03;9.10;;;3.00;;
54871;SDS011;43914;57.680;11.982;2023-05-14T03:26:29;9.00;;;2.80;;
54871;SDS011;43914;57.680;11.982;2023-05-14T03:28:54;6.70;;;2.30;;
54871;SDS011;43914;57.680;11.982;2023-05-14T03:31:20;8.20;;;3.10;;
54871;SDS011;43914;57.680;11.982;2023-05-14T03:33:45;7.70;;;2.80;;
54871;SDS011;43914;57.680;11.982;2023-05-14T03:36:11;11.30;;;2.80;;
54871;SDS011;43914;57.680;11.982;2023-05-14T03:38:37;8.80;;;2.90;;
54871;SDS011;43914;57.680;11.982;2023-05-14T03:41:02;8.00;;;3.20;;
54871;SDS011;43914;57.680;11.982;2023-05-14T03:43:28;7.10;;;2.40;;
54871;SDS011;43914;57.680;11.982;2023-05-14T03:45:53;8.50;;;2.40;;
54871;SDS011;43914;57.680;11.982;2023-05-14T03:48:18;6.50;;;2.60;;
54871;SDS011;43914;57.680;11.982;2023-05-14T03:50:44;10.20;;;2.80;;
54871;SDS011;43914;57.680;11.982;2023-05-14T03:53:10;8.70;;;2.50;;
54871;SDS011;43914;57.680;11.982;2023-05-14T03:55:36;9.50;;;2.70;;
54871;SDS011;43914;57.680;11.982;2023-05-14T03:58:01;11.40;;;2.60;;
54871;SDS011;43914;57.680;11.982;2023-05-14T04:00:27;9.80;;;2.60;;
54871;SDS011;43914;57.680;11.982;2023-05-14T04:02:53;6.50;;;2.60;;
54871;SDS011;43914;57.680;11.982;2023-05-14T04:05:19;8.90;;;3.00;;
54871;SDS011;43914;57.680;11.982;2023-05-14T04:07:44;11.30;;;2.60;;
54871;SDS011;43914;57.680;11.982;2023-05-14T04:10:12;6.40;;;2.60;;
54871;SDS011;43914;57.680;11.982;2023-05-14T04:12:38;6.10;;;2.60;;
54871;SDS011;43914;57.680;11.982;2023-05-14T04:15:03;6.20;;;2.50;;
54871;SDS011;43914;57.680;11.982;2023-05-14T04:17:29;7.10;;;2.70;;
54871;SDS011;43914;57.680;11.982;2023-05-14T04:19:55;10.00;;;2.60;;
54871;SDS011;43914;57.680;11.982;2023-05-14T04:22:20;10.40;;;2.80;;
54871;SDS011;43914;57.680;11.982;2023-05-14T04:24:46;7.40;;;2.50;;
54871;SDS011;43914;57.680;11.982;2023-05-14T04:27:13;7.70;;;2.80;;
54871;SDS011;43914;57.680;11.982;2023-05-14T04:29:45;7.60;;;2.40;;
54871;SDS011;43914;57.680;11.982;2023-05-14T04:32:11;8.00;;;2.70;;
54871;SDS011;43914;57.680;11.982;2023-05-14T04:34:36;9.10;;;2.30;;
54871;SDS011;43914;57.680;11.982;2023-05-14T04:37:02;7.60;;;2.60;;
54871;SDS011;43914;57.680;11.982;2023-05-14T04:39:28;8.30;;;2.80;;
54871;SDS011;43914;57.680;11.982;2023-05-14T04:41:54;6.50;;;2.50;;
54871;SDS011;43914;57.680;11.982;2023-05-14T04:44:19;13.00;;;2.60;;
54871;SDS011;43914;57.680;11.982;2023-05-14T04:46:45;9.00;;;2.50;;
54871;SDS011;43914;57.680;11.982;2023-05-14T04:49:10;9.50;;;2.50;;
54871;SDS011;43914;57.680;11.982;2023-05-14T04:51:37;8.00;;;2.40;;
54871;SDS011;43914;57.680;11.982;2023-05-14T04:54:02;6.30;;;2.30;;
54871;SDS011;43914;57.680;11.982;2023-05-14T04:56:28;7.30;;;2.50;;
54871;SDS011;43914;57.680;11.982;2023-05-14T04:58:53;8.20;;;2.70;;
54871;SDS011;43914;57.680;11.982;2023-05-14T05:01:19;7.90;;;2.80;;
54871;SDS011;43914;57.680;11.982;2023-05-14T05:03:45;8.20;;;2.70;;
54871;SDS011;43914;57.680;11.982;2023-05-14T05:06:10;8.30;;;2.60;;
54871;SDS011;43914;57.680;11.982;2023-05-14T05:08:36;7.70;;;2.70;;
54871;SDS011;43914;57.680;11.982;2023-05-14T05:11:01;7.00;;;2.60;;
54871;SDS011;43914;57.680;11.982;2023-05-14T05:13:27;8.90;;;2.50;;
54871;SDS011;43914;57.680;11.982;2023-05-14T05:15:52;9.60;;;2.40;;
54871;SDS011;43914;57.680;11.982;2023-05-14T05:18:18;6.80;;;2.30;;
54871;SDS011;43914;57.680;11.982;2023-05-14T05:20:43;8.40;;;2.60;;
54871;SDS011;43914;57.680;11.982;2023-05-14T05:23:09;10.60;;;2.60;;
54871;SDS011;43914;57.680;11.982;2023-05-14T05:25:34;7.90;;;2.80;;
54871;SDS011;43914;57.680;11.982;2023-05-14T05:28:00;7.10;;;2.60;;
54871;SDS011;43914;57.680;11.982;2023-05-14T05:30:25;7.30;;;3.00;;
54871;SDS011;43914;57.680;11.982;2023-05-14T05:32:51;6.30;;;2.30;;
54871;SDS011;43914;57.680;11.982;2023-05-14T05:35:16;8.50;;;2.60;;
54871;SDS011;43914;57.680;11.982;2023-05-14T05:37:42;8.60;;;2.30;;
54871;SDS011;43914;57.680;11.982;2023-05-14T05:40:09;6.30;;;2.60;;
54871;SDS011;43914;57.680;11.982;2023-05-14T05:42:35;6.70;;;2.60;;
54871;SDS011;43914;57.680;11.982;2023-05-14T05:45:01;8.80;;;2.40;;
54871;SDS011;43914;57.680;11.982;2023-05-14T05:47:26;7.40;;;2.40;;
54871;SDS011;43914;57.680;11.982;2023-05-14T05:49:52;5.90;;;2.30;;
54871;SDS011;43914;57.680;11.982;2023-05-14T05:52:18;8.10;;;2.20;;
54871;SDS011;43914;57.680;11.982;2023-05-14T05:54:43;8.20;;;2.30;;
54871;SDS011;43914;57.680;11.982;2023-05-14T05:57:09;7.80;;;2.80;;
54871;SDS011;43914;57.680;11.982;2023-05-14T05:59:35;8.00;;;2.20;;
54871;SDS011;43914;57.680;11.982;2023-05-14T06:02:00;7.10;;;2.10;;
54871;SDS011;43914;57.680;11.982;2023-05-14T06:04:26;9.40;;;2.60;;
54871;SDS011;43914;57.680;11.982;2023-05-14T06:06:51;6.50;;;2.40;;
54871;SDS011;43914;57.680;11.982;2023-05-14T06:09:17;6.70;;;2.40;;
54871;SDS011;43914;57.680;11.982;2023-05-14T06:11:42;6.90;;;2.50;;
54871;SDS011;43914;57.680;11.982;2023-05-14T06:14:08;6.80;;;2.50;;
54871;SDS011;43914;57.680;11.982;2023-05-14T06:16:33;7.50;;;2.50;;
54871;SDS011;43914;57.680;11.982;2023-05-14T06:18:59;6.40;;;2.40;;
54871;SDS011;43914;57.680;11.982;2023-05-14T06:21:24;9.50;;;2.80;;
54871;SDS011;43914;57.680;11.982;2023-05-14T06:23:50;6.70;;;2.60;;
54871;SDS011;43914;57.680;11.982;2023-05-14T06:26:15;7.30;;;2.40;;
54871;SDS011;43914;57.680;11.982;2023-05-14T06:28:40;7.60;;;2.50;;
54871;SDS011;43914;57.680;11.982;2023-05-14T06:31:06;7.50;;;2.30;;
54871;SDS011;43914;57.680;11.982;2023-05-14T06:33:31;10.60;;;2.50;;
54871;SDS011;43914;57.680;11.982;2023-05-14T06:35:57;8.20;;;2.90;;
54871;SDS011;43914;57.680;11.982;2023-05-14T06:38:25;8.50;;;2.60;;
54871;SDS011;43914;57.680;11.982;2023-05-14T06:40:50;6.70;;;2.70;;
54871;SDS011;43914;57.680;11.982;2023-05-14T06:43:19;9.30;;;2.50;;
54871;SDS011;43914;57.680;11.982;2023-05-14T06:45:51;10.50;;;2.60;;
54871;SDS011;43914;57.680;11.982;2023-05-14T06:48:17;7.90;;;2.60;;
54871;SDS011;43914;57.680;11.982;2023-05-14T06:50:44;6.90;;;2.70;;
54871;SDS011;43914;57.680;11.982;2023-05-14T06:53:10;7.20;;;2.80;;
54871;SDS011;43914;57.680;11.982;2023-05-14T06:55:36;6.70;;;2.40;;
54871;SDS011;43914;57.680;11.982;2023-05-14T06:58:02;8.80;;;2.60;;
54871;SDS011;43914;57.680;11.982;2023-05-14T07:00:28;10.40;;;2.70;;
54871;SDS011;43914;57.680;11.982;2023-05-14T07:02:54;11.50;;;2.50;;
54871;SDS011;43914;57.680;11.982;2023-05-14T07:05:20;7.60;;;2.80;;
54871;SDS011;43914;57.680;11.982;2023-05-14T07:07:45;7.70;;;2.30;;
54871;SDS011;43914;57.680;11.982;2023-05-14T07:10:11;7.50;;;2.60;;
54871;SDS011;43914;57.680;11.982;2023-05-14T07:12:36;6.80;;;2.20;;
54871;SDS011;43914;57.680;11.982;2023-05-14T07:15:02;8.50;;;2.50;;
54871;SDS011;43914;57.680;11.982;2023-05-14T07:17:27;9.30;;;2.40;;
54871;SDS011;43914;57.680;11.982;2023-05-14T07:19:53;11.00;;;2.30;;
54871;SDS011;43914;57.680;11.982;2023-05-14T07:22:20;9.10;;;2.70;;
54871;SDS011;43914;57.680;11.982;2023-05-14T07:24:48;7.00;;;2.70;;
54871;SDS011;43914;57.680;11.982;2023-05-14T07:27:14;6.90;;;2.30;;
54871;SDS011;43914;57.680;11.982;2023-05-14T07:29:41;7.90;;;2.60;;
54871;SDS011;43914;57.680;11.982;2023-05-14T07:32:07;7.70;;;2.60;;
54871;SDS011;43914;57.680;11.982;2023-05-14T07:34:32;6.50;;;2.60;;
54871;SDS011;43914;57.680;11.982;2023-05-14T07:36:58;9.30;;;2.30;;
54871;SDS011;43914;57.680;11.982;2023-05-14T07:39:23;9.50;;;2.80;;
54871;SDS011;43914;57.680;11.982;2023-05-14T07:41:49;7.10;;;2.60;;
54871;SDS011;43914;57.680;11.982;2023-05-14T07:44:15;7.90;;;2.60;;
54871;SDS011;43914;57.680;11.982;2023-05-14T07:46:41;11.90;;;2.20;;
54871;SDS011;43914;57.680;11.982;2023-05-14T07:49:06;9.10;;;3.00;;
54871;SDS011;43914;57.680;11.982;2023-05-14T07:51:32;8.20;;;2.90;;
54871;SDS011;43914;57.680;11.982;2023-05-14T07:53:57;8.20;;;2.90;;
54871;SDS011;43914;57.680;11.982;2023-05-14T07:56:23;9.50;;;2.70;;
54871;SDS011;43914;57.680;11.982;2023-05-14T07:58:49;5.70;;;2.20;;
54871;SDS011;43914;57.680;11.982;2023-05-14T08:01:15;10.10;;;2.60;;
54871;SDS011;43914;57.680;11.982;2023-05-14T08:03:41;6.90;;;2.60;;
54871;SDS011;43914;57.680;11.982;2023-05-14T08:06:07;6.80;;;2.40;;
54871;SDS011;43914;57.680;11.982;2023-05-14T08:08:32;9.30;;;2.80;;
54871;SDS011;43914;57.680;11.982;2023-05-14T08:10:58;6.70;;;2.60;;
54871;SDS011;43914;57.680;11.982;2023-05-14T08:13:23;7.40;;;2.50;;
54871;SDS011;43914;57.680;11.982;2023-05-14T08:15:49;9.60;;;3.30;;
54871;SDS011;43914;57.680;11.982;2023-05-14T08:18:15;8.30;;;2.70;;
54871;SDS011;43914;57.680;11.982;2023-05-14T08:20:40;11.50;;;2.60;;
54871;SDS011;43914;57.680;11.982;2023-05-14T08:23:06;10.40;;;2.90;;
54871;SDS011;43914;57.680;11.982;2023-05-14T08:25:32;8.90;;;2.50;;
54871;SDS011;43914;57.680;11.982;2023-05-14T08:27:58;6.40;;;2.30;;
54871;SDS011;43914;57.680;11.982;2023-05-14T08:30:24;7.60;;;2.70;;
54871;SDS011;43914;57.680;11.982;2023-05-14T08:32:50;7.20;;;2.40;;
54871;SDS011;43914;57.680;11.982;2023-05-14T08:35:16;10.90;;;2.90;;
54871;SDS011;43914;57.680;11.982;2023-05-14T08:37:42;10.90;;;2.80;;
54871;SDS011;43914;57.680;11.982;2023-05-14T08:40:08;10.20;;;2.90;;
54871;SDS011;43914;57.680;11.982;2023-05-14T08:42:33;9.00;;;2.50;;
54871;SDS011;43914;57.680;11.982;2023-05-14T08:45:03;7.00;;;2.50;;
54871;SDS011;43914;57.680;11.982;2023-05-14T08:47:32;6.60;;;2.60;;
54871;SDS011;43914;57.680;11.982;2023-05-14T08:50:01;7.70;;;2.70;;
54871;SDS011;43914;57.680;11.982;2023-05-14T08:52:28;9.50;;;2.70;;
54871;SDS011;43914;57.680;11.982;2023-05-14T08:54:54;9.00;;;2.60;;
54871;SDS011;43914;57.680;11.982;2023-05-14T08:57:23;10.50;;;2.50;;
54871;SDS011;43914;57.680;11.982;2023-05-14T08:59:50;10.90;;;2.80;;
54871;SDS011;43914;57.680;11.982;2023-05-14T09:02:21;7.30;;;2.90;;
54871;SDS011;43914;57.680;11.982;2023-05-14T09:04:49;9.00;;;2.80;;
54871;SDS011;43914;57.680;11.982;2023-05-14T09:07:20;10.10;;;2.50;;
54871;SDS011;43914;57.680;11.982;2023-05-14T09:09:46;8.10;;;2.50;;
54871;SDS011;43914;57.680;11.982;2023-05-14T09:12:12;8.20;;;2.80;;
54871;SDS011;43914;57.680;11.982;2023-05-14T09:14:37;10.00;;;2.60;;
54871;SDS011;43914;57.680;11.982;2023-05-14T09:17:03;7.40;;;2.70;;
54871;SDS011;43914;57.680;11.982;2023-05-14T09:19:28;8.40;;;2.70;;
54871;SDS011;43914;57.680;11.982;2023-05-14T09:21:55;9.00;;;2.60;;
54871;SDS011;43914;57.680;11.982;2023-05-14T09:24:24;8.20;;;2.30;;
54871;SDS011;43914;57.680;11.982;2023-05-14T09:26:54;6.50;;;2.30;;
54871;SDS011;43914;57.680;11.982;2023-05-14T09:29:28;8.70;;;2.50;;
54871;SDS011;43914;57.680;11.982;2023-05-14T09:31:54;8.00;;;2.70;;
54871;SDS011;43914;57.680;11.982;2023-05-14T09:34:24;9.30;;;2.70;;
54871;SDS011;43914;57.680;11.982;2023-05-14T09:36:58;6.90;;;2.50;;
54871;SDS011;43914;57.680;11.982;2023-05-14T09:39:29;6.60;;;2.70;;
54871;SDS011;43914;57.680;11.982;2023-05-14T09:41:56;8.90;;;2.40;;
54871;SDS011;43914;57.680;11.982;2023-05-14T09:44:22;9.50;;;2.70;;
54871;SDS011;43914;57.680;11.982;2023-05-14T09:46:48;8.70;;;2.70;;
54871;SDS011;43914;57.680;11.982;2023-05-14T09:49:15;7.20;;;2.40;;
54871;SDS011;43914;57.680;11.982;2023-05-14T09:51:40;7.90;;;2.90;;
54871;SDS011;43914;57.680;11.982;2023-05-14T09:54:07;10.20;;;2.60;;
54871;SDS011;43914;57.680;11.982;2023-05-14T09:56:33;7.30;;;2.70;;
54871;SDS011;43914;57.680;11.982;2023-05-14T09:59:00;7.20;;;2.80;;
54871;SDS011;43914;57.680;11.982;2023-05-14T10:01:26;6.90;;;2.60;;
54871;SDS011;43914;57.680;11.982;2023-05-14T10:03:53;8.20;;;2.80;;
54871;SDS011;43914;57.680;11.982;2023-05-14T10:06:20;6.70;;;2.80;;
54871;SDS011;43914;57.680;11.982;2023-05-14T10:08:48;6.70;;;2.70;;
54871;SDS011;43914;57.680;11.982;2023-05-14T10:11:19;8.20;;;2.90;;
54871;SDS011;43914;57.680;11.982;2023-05-14T10:14:06;8.90;;;2.80;;
54871;SDS011;43914;57.680;11.982;2023-05-14T10:16:36;7.20;;;2.50;;
54871;SDS011;43914;57.680;11.982;2023-05-14T10:19:08;9.00;;;2.60;;
54871;SDS011;43914;57.680;11.982;2023-05-14T10:21:37;8.00;;;2.60;;
54871;SDS011;43914;57.680;11.982;2023-05-14T10:24:05;11.70;;;2.80;;
54871;SDS011;43914;57.680;11.982;2023-05-14T10:26:31;7.60;;;2.70;;
54871;SDS011;43914;57.680;11.982;2023-05-14T10:29:01;7.80;;;2.70;;
54871;SDS011;43914;57.680;11.982;2023-05-14T10:31:43;10.10;;;3.00;;
54871;SDS011;43914;57.680;11.982;2023-05-14T10:34:36;12.50;;;3.00;;
54871;SDS011;43914;57.680;11.982;2023-05-14T10:37:20;11.90;;;2.70;;
54871;SDS011;43914;57.680;11.982;2023-05-14T10:39:56;9.60;;;2.30;;
54871;SDS011;43914;57.680;11.982;2023-05-14T10:42:26;11.20;;;2.20;;
54871;SDS011;43914;57.680;11.982;2023-05-14T10:45:01;7.00;;;2.20;;
54871;SDS011;43914;57.680;11.982;2023-05-14T10:47:31;7.20;;;2.20;;
54871;SDS011;43914;57.680;11.982;2023-05-14T10:49:58;11.90;;;2.20;;
54871;SDS011;43914;57.680;11.982;2023-05-14T10:52:26;8.20;;;2.20;;
54871;SDS011;43914;57.680;11.982;2023-05-14T10:54:52;6.00;;;2.10;;
54871;SDS011;43914;57.680;11.982;2023-05-14T10:57:19;7.70;;;2.40;;
54871;SDS011;43914;57.680;11.982;2023-05-14T10:59:46;7.00;;;2.20;;
54871;SDS011;43914;57.680;11.982;2023-05-14T11:02:21;6.50;;;2.00;;
54871;SDS011;43914;57.680;11.982;2023-05-14T11:05:00;7.60;;;2.10;;
54871;SDS011;43914;57.680;11.982;2023-05-14T11:07:44;6.70;;;2.10;;
54871;SDS011;43914;57.680;11.982;2023-05-14T11:10:13;9.80;;;2.00;;
54871;SDS011;43914;57.680;11.982;2023-05-14T11:12:43;6.00;;;1.70;;
54871;SDS011;43914;57.680;11.982;2023-05-14T11:15:14;8.70;;;2.00;;
54871;SDS011;43914;57.680;11.982;2023-05-14T11:17:41;7.10;;;2.00;;
54871;SDS011;43914;57.680;11.982;2023-05-14T11:20:08;7.10;;;2.10;;
54871;SDS011;43914;57.680;11.982;2023-05-14T11:22:35;8.70;;;2.30;;
54871;SDS011;43914;57.680;11.982;2023-05-14T11:25:02;5.90;;;1.90;;
54871;SDS011;43914;57.680;11.982;2023-05-14T11:27:28;7.70;;;2.00;;
54871;SDS011;43914;57.680;11.982;2023-05-14T11:29:57;7.80;;;2.20;;
54871;SDS011;43914;57.680;11.982;2023-05-14T11:32:25;8.10;;;2.40;;
54871;SDS011;43914;57.680;11.982;2023-05-14T11:34:51;6.60;;;2.10;;
54871;SDS011;43914;57.680;11.982;2023-05-14T11:37:17;7.40;;;2.00;;
54871;SDS011;43914;57.680;11.982;2023-05-14T11:39:46;6.80;;;2.10;;
54871;SDS011;43914;57.680;11.982;2023-05-14T11:42:13;10.10;;;3.70;;
54871;SDS011;43914;57.680;11.982;2023-05-14T11:44:41;8.70;;;2.10;;
54871;SDS011;43914;57.680;11.982;2023-05-14T11:47:08;6.40;;;2.10;;
54871;SDS011;43914;57.680;11.982;2023-05-14T11:49:35;8.30;;;2.20;;
54871;SDS011;43914;57.680;11.982;2023-05-14T11:52:02;6.10;;;2.30;;
54871;SDS011;43914;57.680;11.982;2023-05-14T11:54:30;8.50;;;2.50;;
54871;SDS011;43914;57.680;11.982;2023-05-14T11:56:58;7.90;;;2.20;;
54871;SDS011;43914;57.680;11.982;2023-05-14T11:59:24;7.80;;;2.40;;
54871;SDS011;43914;57.680;11.982;2023-05-14T12:01:52;8.00;;;2.10;;
54871;SDS011;43914;57.680;11.982;2023-05-14T12:04:19;8.10;;;2.30;;
54871;SDS011;43914;57.680;11.982;2023-05-14T12:06:49;7.60;;;2.10;;
54871;SDS011;43914;57.680;11.982;2023-05-14T12:09:18;7.30;;;2.10;;
54871;SDS011;43914;57.680;11.982;2023-05-14T12:11:45;8.30;;;2.80;;
54871;SDS011;43914;57.680;11.982;2023-05-14T12:16:04;7.70;;;2.30;;
54871;SDS011;43914;57.680;11.982;2023-05-14T12:18:30;5.90;;;2.40;;
54871;SDS011;43914;57.680;11.982;2023-05-14T12:21:02;6.80;;;2.20;;
54871;SDS011;43914;57.680;11.982;2023-05-14T12:23:32;7.70;;;2.40;;
54871;SDS011;43914;57.680;11.982;2023-05-14T12:26:04;6.20;;;2.30;;
54871;SDS011;43914;57.680;11.982;2023-05-14T12:28:32;8.10;;;2.40;;
54871;SDS011;43914;57.680;11.982;2023-05-14T12:31:07;6.40;;;1.90;;
54871;SDS011;43914;57.680;11.982;2023-05-14T12:33:32;9.20;;;3.30;;
54871;SDS011;43914;57.680;11.982;2023-05-14T12:35:58;7.20;;;2.10;;
54871;SDS011;43914;57.680;11.982;2023-05-14T12:38:27;6.90;;;2.20;;
54871;SDS011;43914;57.680;11.982;2023-05-14T12:40:53;11.00;;;2.40;;
54871;SDS011;43914;57.680;11.982;2023-05-14T12:43:18;7.70;;;2.10;;
54871;SDS011;43914;57.680;11.982;2023-05-14T12:45:44;7.40;;;2.10;;
54871;SDS011;43914;57.680;11.982;2023-05-14T12:48:10;7.20;;;2.10;;
54871;SDS011;43914;57.680;11.982;2023-05-14T12:50:37;7.50;;;2.00;;
54871;SDS011;43914;57.680;11.982;2023-05-14T12:53:03;5.30;;;1.90;;
54871;SDS011;43914;57.680;11.982;2023-05-14T12:55:29;6.70;;;1.80;;
54871;SDS011;43914;57.680;11.982;2023-05-14T12:57:55;6.00;;;1.80;;
54871;SDS011;43914;57.680;11.982;2023-05-14T13:00:21;5.90;;;1.60;;
54871;SDS011;43914;57.680;11.982;2023-05-14T13:02:47;8.70;;;2.40;;
54871;SDS011;43914;57.680;11.982;2023-05-14T13:05:12;6.50;;;1.80;;
54871;SDS011;43914;57.680;11.982;2023-05-14T13:07:38;7.80;;;1.90;;
54871;SDS011;43914;57.680;11.982;2023-05-14T13:10:04;5.40;;;1.90;;
54871;SDS011;43914;57.680;11.982;2023-05-14T13:12:30;6.30;;;1.90;;
54871;SDS011;43914;57.680;11.982;2023-05-14T13:14:56;5.00;;;1.50;;
54871;SDS011;43914;57.680;11.982;2023-05-14T13:17:21;5.10;;;1.50;;
54871;SDS011;43914;57.680;11.982;2023-05-14T13:19:47;7.90;;;1.80;;
54871;SDS011;43914;57.680;11.982;2023-05-14T13:22:12;5.40;;;1.60;;
54871;SDS011;43914;57.680;11.982;2023-05-14T13:24:40;6.20;;;1.40;;
54871;SDS011;43914;57.680;11.982;2023-05-14T13:27:05;7.30;;;1.50;;
54871;SDS011;43914;57.680;11.982;2023-05-14T13:29:31;6.50;;;1.60;;
54871;SDS011;43914;57.680;11.982;2023-05-14T13:31:56;6.90;;;1.70;;
54871;SDS011;43914;57.680;11.982;2023-05-14T13:34:22;6.50;;;1.70;;
54871;SDS011;43914;57.680;11.982;2023-05-14T13:36:47;5.40;;;1.50;;
54871;SDS011;43914;57.680;11.982;2023-05-14T13:39:13;7.10;;;1.70;;
54871;SDS011;43914;57.680;11.982;2023-05-14T13:41:39;6.10;;;1.60;;
54871;SDS011;43914;57.680;11.982;2023-05-14T13:44:05;12.40;;;1.90;;
54871;SDS011;43914;57.680;11.982;2023-05-14T13:46:31;7.10;;;1.90;;
54871;SDS011;43914;57.680;11.982;2023-05-14T13:48:56;12.00;;;1.90;;
54871;SDS011;43914;57.680;11.982;2023-05-14T13:51:22;9.40;;;2.00;;
54871;SDS011;43914;57.680;11.982;2023-05-14T13:53:48;6.30;;;1.70;;
54871;SDS011;43914;57.680;11.982;2023-05-14T13:56:14;6.60;;;1.70;;
54871;SDS011;43914;57.680;11.982;2023-05-14T13:58:40;6.70;;;2.10;;
54871;SDS011;43914;57.680;11.982;2023-05-14T14:01:06;5.70;;;1.70;;
54871;SDS011;43914;57.680;11.982;2023-05-14T14:03:32;6.40;;;1.80;;
54871;SDS011;43914;57.680;11.982;2023-05-14T14:05:57;5.10;;;1.70;;
54871;SDS011;43914;57.680;11.982;2023-05-14T14:08:23;6.20;;;1.70;;
54871;SDS011;43914;57.680;11.982;2023-05-14T14:10:49;6.00;;;1.70;;
54871;SDS011;43914;57.680;11.982;2023-05-14T14:13:15;8.80;;;1.90;;
54871;SDS011;43914;57.680;11.982;2023-05-14T14:15:41;6.10;;;1.80;;
54871;SDS011;43914;57.680;11.982;2023-05-14T14:18:08;5.70;;;1.60;;
54871;SDS011;43914;57.680;11.982;2023-05-14T14:20:33;6.20;;;1.70;;
54871;SDS011;43914;57.680;11.982;2023-05-14T14:22:59;5.40;;;1.60;;
54871;SDS011;43914;57.680;11.982;2023-05-14T14:25:25;9.10;;;2.00;;
54871;SDS011;43914;57.680;11.982;2023-05-14T14:27:51;6.60;;;1.80;;
54871;SDS011;43914;57.680;11.982;2023-05-14T14:30:16;8.10;;;1.70;;
54871;SDS011;43914;57.680;11.982;2023-05-14T14:32:46;8.10;;;1.60;;
54871;SDS011;43914;57.680;11.982;2023-05-14T14:35:13;7.10;;;1.90;;
54871;SDS011;43914;57.680;11.982;2023-05-14T14:37:41;5.30;;;1.80;;
54871;SDS011;43914;57.680;11.982;2023-05-14T14:40:09;8.70;;;2.20;;
54871;SDS011;43914;57.680;11.982;2023-05-14T14:42:35;6.50;;;2.20;;
54871;SDS011;43914;57.680;11.982;2023-05-14T14:45:04;7.70;;;1.90;;